createdAt,value
2017-06-26T00:02:14.878Z,8.33
2017-06-26T00:04:42.402Z,9.00
2017-06-26T00:07:09.911Z,8.80
2017-06-26T00:09:37.443Z,8.67
2017-06-26T00:12:04.950Z,8.10
2017-06-26T00:14:32.459Z,8.70
2017-06-26T00:16:59.983Z,8.90
2017-06-26T00:19:27.483Z,9.60
2017-06-26T00:21:55.002Z,8.73
2017-06-26T00:24:22.507Z,9.10
2017-06-26T00:26:50.035Z,9.60
2017-06-26T00:29:17.539Z,9.47
2017-06-26T00:31:45.052Z,9.03
2017-06-26T00:34:12.576Z,8.70
2017-06-26T00:36:40.079Z,8.70
2017-06-26T00:39:07.599Z,8.80
2017-06-26T00:41:35.108Z,9.43
2017-06-26T00:44:02.636Z,8.90
2017-06-26T00:46:30.142Z,9.30
2017-06-26T00:48:58.440Z,9.00
2017-06-26T00:51:25.940Z,8.03
2017-06-26T00:53:53.443Z,9.10
2017-06-26T00:56:20.967Z,8.10
2017-06-26T00:58:48.472Z,8.93
2017-06-26T01:01:15.995Z,8.73
2017-06-26T01:03:43.501Z,8.10
2017-06-26T01:06:11.031Z,9.00
2017-06-26T01:08:38.543Z,9.60
2017-06-26T01:11:06.051Z,8.60
2017-06-26T01:13:33.575Z,10.00
2017-06-26T01:16:01.079Z,9.60
2017-06-26T01:18:28.606Z,8.70
2017-06-26T01:20:56.111Z,9.53
2017-06-26T01:23:23.655Z,8.43
2017-06-26T01:25:51.162Z,10.00
2017-06-26T01:28:18.664Z,8.60
2017-06-26T01:30:46.187Z,9.30
2017-06-26T01:33:13.691Z,9.37
2017-06-26T01:35:41.215Z,8.90
2017-06-26T01:38:09.491Z,8.47
2017-06-26T01:40:37.012Z,9.80
2017-06-26T01:43:04.807Z,8.60
2017-06-26T01:45:32.339Z,9.20
2017-06-26T01:47:59.846Z,8.30
2017-06-26T01:50:28.119Z,8.00
2017-06-26T01:52:56.406Z,8.90
2017-06-26T01:55:23.915Z,8.70
2017-06-26T01:57:51.440Z,9.13
2017-06-26T02:00:18.963Z,8.60
2017-06-26T02:02:47.268Z,8.70
2017-06-26T02:05:14.778Z,8.23
2017-06-26T02:07:42.282Z,8.20
2017-06-26T02:10:09.802Z,9.10
2017-06-26T02:12:37.311Z,9.30
2017-06-26T02:15:04.839Z,8.40
2017-06-26T02:17:33.114Z,9.40
2017-06-26T02:20:01.411Z,9.33
2017-06-26T02:22:28.916Z,9.00
2017-06-26T02:24:56.416Z,8.70
2017-06-26T02:27:23.934Z,8.53
2017-06-26T02:29:51.434Z,8.80
2017-06-26T02:32:18.959Z,8.77
2017-06-26T02:34:46.467Z,8.63
2017-06-26T02:37:13.996Z,8.60
2017-06-26T02:39:42.267Z,9.10
2017-06-26T02:42:10.539Z,9.57
2017-06-26T02:44:38.836Z,8.60
2017-06-26T02:47:06.344Z,8.67
2017-06-26T02:49:33.867Z,9.80
2017-06-26T02:52:01.378Z,10.27
2017-06-26T02:54:28.935Z,8.97
2017-06-26T02:56:56.443Z,8.20
2017-06-26T02:59:23.947Z,8.60
2017-06-26T03:01:51.467Z,9.10
2017-06-26T03:04:18.970Z,8.80
2017-06-26T03:06:46.519Z,8.30
2017-06-26T03:09:14.022Z,8.60
2017-06-26T03:11:53.347Z,8.73
2017-06-26T03:14:20.857Z,9.30
2017-06-26T03:16:48.364Z,9.57
2017-06-26T03:19:15.892Z,8.53
2017-06-26T03:21:43.399Z,8.80
2017-06-26T03:24:10.919Z,8.90
2017-06-26T03:26:38.426Z,8.63
2017-06-26T03:29:05.959Z,8.37
2017-06-26T03:31:33.467Z,8.80
2017-06-26T03:34:00.975Z,7.77
2017-06-26T03:36:28.503Z,8.60
2017-06-26T03:38:56.013Z,9.53
2017-06-26T03:41:23.547Z,8.40
2017-06-26T03:43:51.051Z,8.20
2017-06-26T03:46:18.571Z,7.60
2017-06-26T03:48:46.076Z,8.53
2017-06-26T03:51:13.583Z,8.80
2017-06-26T03:53:41.107Z,9.17
2017-06-26T03:56:08.619Z,10.60
2017-06-26T03:58:36.143Z,9.80
2017-06-26T04:01:04.415Z,9.67
2017-06-26T04:03:32.702Z,9.80
2017-06-26T04:06:00.979Z,10.00
2017-06-26T04:08:29.256Z,10.10
2017-06-26T04:10:56.785Z,9.80
2017-06-26T04:13:24.291Z,9.70
2017-06-26T04:15:51.816Z,10.67
2017-06-26T04:18:19.327Z,9.37
2017-06-26T04:20:46.851Z,8.20
2017-06-26T04:23:14.356Z,8.53
2017-06-26T04:25:41.864Z,8.37
2017-06-26T04:28:09.390Z,8.33
2017-06-26T04:30:36.891Z,7.80
2017-06-26T04:33:04.410Z,7.57
2017-06-26T04:35:31.911Z,7.40
2017-06-26T04:37:59.455Z,7.77
2017-06-26T04:40:27.726Z,8.20
2017-06-26T04:42:55.232Z,7.60
2017-06-26T04:45:22.760Z,7.43
2017-06-26T04:47:50.267Z,8.40
2017-06-26T04:50:17.788Z,7.67
2017-06-26T04:52:45.299Z,7.80
2017-06-26T04:55:12.842Z,8.00
2017-06-26T04:57:40.339Z,7.33
2017-06-26T05:00:08.611Z,8.00
2017-06-26T05:02:36.135Z,8.77
2017-06-26T05:05:03.648Z,8.20
2017-06-26T05:07:31.175Z,8.20
2017-06-26T05:09:59.454Z,9.50
2017-06-26T05:12:27.751Z,9.63
2017-06-26T05:14:55.259Z,8.80
2017-06-26T05:17:22.772Z,10.03
2017-06-26T05:19:50.298Z,11.10
2017-06-26T05:22:17.800Z,8.57
2017-06-26T05:24:45.327Z,8.10
2017-06-26T05:27:12.831Z,7.87
2017-06-26T05:29:40.354Z,8.67
2017-06-26T05:32:08.623Z,9.13
2017-06-26T05:34:36.943Z,8.13
2017-06-26T05:37:04.455Z,8.30
2017-06-26T05:39:31.971Z,8.10
2017-06-26T05:41:59.495Z,8.00
2017-06-26T05:44:27.007Z,8.60
2017-06-26T05:46:54.531Z,8.47
2017-06-26T05:49:22.039Z,7.53
2017-06-26T05:51:49.572Z,8.00
2017-06-26T05:54:17.084Z,8.37
2017-06-26T05:56:44.604Z,8.13
2017-06-26T05:59:12.140Z,7.63
2017-06-26T06:01:39.648Z,8.73
2017-06-26T06:04:07.176Z,7.43
2017-06-26T06:06:34.682Z,7.23
2017-06-26T06:09:02.231Z,6.90
2017-06-26T06:11:29.735Z,8.30
2017-06-26T06:13:57.239Z,7.53
2017-06-26T06:16:24.766Z,7.10
2017-06-26T06:18:52.271Z,6.53
2017-06-26T06:21:19.783Z,6.47
2017-06-26T06:23:47.295Z,6.93
2017-06-26T06:26:14.937Z,7.20
2017-06-26T06:28:42.459Z,5.13
2017-06-26T06:31:10.008Z,7.17
2017-06-26T06:33:37.513Z,7.37
2017-06-26T06:36:05.023Z,6.57
2017-06-26T06:38:32.539Z,7.27
2017-06-26T06:41:00.042Z,6.80
2017-06-26T06:43:27.559Z,5.30
2017-06-26T06:45:55.063Z,5.10
2017-06-26T06:48:22.589Z,5.10
2017-06-26T06:50:50.096Z,6.30
2017-06-26T06:53:18.398Z,4.90
2017-06-26T06:55:45.902Z,4.97
2017-06-26T06:58:13.406Z,4.93
2017-06-26T07:00:41.700Z,4.63
2017-06-26T07:03:09.207Z,4.80
2017-06-26T07:05:36.722Z,4.73
2017-06-26T07:08:04.233Z,4.37
2017-06-26T07:10:31.775Z,5.03
2017-06-26T07:12:59.279Z,4.50
2017-06-26T07:15:26.786Z,4.50
2017-06-26T07:17:54.303Z,4.70
2017-06-26T07:20:21.819Z,4.50
2017-06-26T07:22:49.347Z,4.47
2017-06-26T07:25:16.855Z,4.57
2017-06-26T07:27:45.163Z,4.80
2017-06-26T07:30:12.667Z,4.50
2017-06-26T07:32:40.178Z,4.00
2017-06-26T07:35:07.695Z,4.80
2017-06-26T07:37:35.200Z,4.27
2017-06-26T07:40:02.731Z,4.33
2017-06-26T07:42:30.243Z,3.87
2017-06-26T07:44:57.770Z,4.37
2017-06-26T07:47:25.280Z,3.90
2017-06-26T07:49:52.805Z,4.43
2017-06-26T07:52:20.330Z,4.83
2017-06-26T07:54:47.831Z,4.47
2017-06-26T07:57:15.355Z,3.80
2017-06-26T07:59:42.871Z,4.00
2017-06-26T08:02:10.396Z,4.23
2017-06-26T08:04:37.900Z,4.37
2017-06-26T08:07:05.408Z,4.10
2017-06-26T08:09:32.931Z,4.83
2017-06-26T08:12:00.439Z,3.80
2017-06-26T08:14:27.959Z,4.53
2017-06-26T08:16:55.475Z,3.70
2017-06-26T08:19:23.007Z,4.17
2017-06-26T08:21:50.512Z,4.10
2017-06-26T08:24:18.788Z,4.10
2017-06-26T08:26:46.307Z,3.93
2017-06-26T08:29:13.806Z,3.83
2017-06-26T08:31:41.413Z,3.93
2017-06-26T08:34:08.919Z,4.50
2017-06-26T08:36:36.459Z,4.27
2017-06-26T08:39:03.958Z,4.40
2017-06-26T08:41:31.454Z,4.00
2017-06-26T08:43:59.047Z,4.27
2017-06-26T08:46:26.547Z,4.70
2017-06-26T08:48:54.071Z,4.40
2017-06-26T08:51:22.344Z,4.57
2017-06-26T08:53:49.873Z,4.27
2017-06-26T08:56:17.379Z,4.13
2017-06-26T08:58:45.663Z,4.40
2017-06-26T09:01:13.185Z,4.40
2017-06-26T09:03:40.686Z,4.07
2017-06-26T09:06:08.211Z,4.97
2017-06-26T09:08:36.487Z,3.97
2017-06-26T09:11:04.019Z,4.10
2017-06-26T09:13:31.514Z,4.13
2017-06-26T09:15:59.018Z,4.53
2017-06-26T09:18:26.535Z,4.87
2017-06-26T09:20:54.803Z,4.40
2017-06-26T09:23:22.323Z,4.90
2017-06-26T09:25:49.824Z,4.57
2017-06-26T09:28:17.343Z,4.67
2017-06-26T09:30:44.847Z,4.73
2017-06-26T09:33:13.126Z,4.03
2017-06-26T09:35:40.652Z,4.43
2017-06-26T09:38:08.155Z,4.80
2017-06-26T09:40:35.681Z,4.97
2017-06-26T09:43:03.960Z,4.20
2017-06-26T09:45:31.492Z,4.20
2017-06-26T09:47:59.000Z,4.77
2017-06-26T09:50:26.507Z,4.10
2017-06-26T09:52:54.031Z,5.37
2017-06-26T09:55:21.539Z,4.07
2017-06-26T09:57:49.064Z,4.50
2017-06-26T10:00:16.576Z,4.33
2017-06-26T10:02:44.114Z,4.03
2017-06-26T10:05:11.618Z,4.73
2017-06-26T10:07:39.118Z,4.20
2017-06-26T10:10:06.641Z,4.47
2017-06-26T10:12:34.147Z,4.20
2017-06-26T10:15:01.667Z,3.97
2017-06-26T10:17:29.184Z,4.53
2017-06-26T10:19:57.481Z,4.40
2017-06-26T10:22:25.001Z,4.17
2017-06-26T10:24:52.504Z,4.47
2017-06-26T10:27:20.020Z,4.20
2017-06-26T10:29:47.519Z,4.60
2017-06-26T10:32:15.047Z,4.00
2017-06-26T10:34:42.543Z,4.30
2017-06-26T10:37:10.080Z,4.10
2017-06-26T10:39:37.599Z,4.23
2017-06-26T10:42:05.107Z,4.17
2017-06-26T10:44:32.641Z,4.03
2017-06-26T10:47:00.915Z,3.93
2017-06-26T10:49:29.207Z,4.63
2017-06-26T10:51:56.719Z,3.87
2017-06-26T10:54:24.259Z,4.07
2017-06-26T10:56:51.771Z,4.13
2017-06-26T10:59:19.275Z,3.73
2017-06-26T11:01:47.111Z,4.23
2017-06-26T11:04:14.629Z,3.83
2017-06-26T11:06:42.154Z,3.80
2017-06-26T11:09:09.673Z,4.20
2017-06-26T11:11:37.207Z,4.40
2017-06-26T11:14:04.716Z,3.63
2017-06-26T11:16:32.224Z,3.90
2017-06-26T11:18:59.749Z,3.67
2017-06-26T11:21:27.259Z,4.00
2017-06-26T11:23:55.547Z,3.87
2017-06-26T11:26:23.055Z,4.33
2017-06-26T11:28:50.607Z,3.80
2017-06-26T11:31:18.118Z,3.50
2017-06-26T11:33:45.630Z,3.87
2017-06-26T11:36:13.150Z,3.60
2017-06-26T11:38:40.662Z,3.23
2017-06-26T11:41:08.184Z,3.47
2017-06-26T11:43:35.704Z,3.27
2017-06-26T11:46:04.001Z,3.50
2017-06-26T11:48:31.507Z,3.47
2017-06-26T11:50:59.011Z,3.30
2017-06-26T11:53:26.535Z,2.93
2017-06-26T11:55:54.811Z,3.30
2017-06-26T11:58:22.336Z,2.97
2017-06-26T12:00:49.844Z,2.97
2017-06-26T12:03:18.131Z,3.57
2017-06-26T12:05:45.635Z,3.10
2017-06-26T12:08:13.190Z,3.53
2017-06-26T12:10:40.699Z,2.57
2017-06-26T12:13:08.212Z,3.00
2017-06-26T12:15:35.732Z,3.10
2017-06-26T12:18:03.239Z,3.00
2017-06-26T12:20:30.761Z,3.23
2017-06-26T12:22:58.267Z,2.40
2017-06-26T12:25:25.803Z,2.80
2017-06-26T12:27:53.312Z,2.83
2017-06-26T12:30:20.829Z,2.50
2017-06-26T12:32:48.347Z,2.83
2017-06-26T12:35:15.855Z,2.70
2017-06-26T12:37:43.378Z,2.40
2017-06-26T12:40:10.890Z,2.30
2017-06-26T12:42:39.178Z,2.60
2017-06-26T12:45:06.684Z,3.00
2017-06-26T12:47:34.227Z,2.70
2017-06-26T12:50:01.739Z,2.60
2017-06-26T12:52:30.023Z,2.30
2017-06-26T12:54:58.321Z,3.07
2017-06-26T12:57:25.831Z,2.80
2017-06-26T12:59:53.351Z,3.10
2017-06-26T13:02:20.859Z,2.80
2017-06-26T13:04:48.391Z,2.83
2017-06-26T13:07:15.908Z,2.97
2017-06-26T13:09:43.420Z,2.67
2017-06-26T13:12:10.934Z,3.10
2017-06-26T13:14:38.445Z,2.67
2017-06-26T13:17:05.963Z,3.03
2017-06-26T13:19:33.471Z,2.90
2017-06-26T13:22:01.024Z,2.80
2017-06-26T13:24:28.525Z,2.73
2017-06-26T13:26:56.035Z,2.80
2017-06-26T13:29:23.553Z,2.53
2017-06-26T13:31:51.063Z,2.77
2017-06-26T13:34:18.595Z,2.60
2017-06-26T13:36:46.103Z,2.57
2017-06-26T13:39:13.631Z,2.77
2017-06-26T13:41:41.134Z,2.70
2017-06-26T13:44:08.649Z,2.37
2017-06-26T13:46:36.175Z,2.33
2017-06-26T13:49:03.688Z,2.47
2017-06-26T13:51:31.980Z,2.20
2017-06-26T13:53:59.491Z,2.03
2017-06-26T13:56:27.027Z,2.17
2017-06-26T13:58:54.527Z,2.80
2017-06-26T14:01:22.806Z,2.40
2017-06-26T14:03:51.095Z,2.40
2017-06-26T14:06:18.618Z,2.40
2017-06-26T14:08:46.143Z,2.83
2017-06-26T14:11:13.655Z,2.80
2017-06-26T14:13:41.947Z,2.27
2017-06-26T14:16:09.463Z,2.00
2017-06-26T14:18:36.975Z,2.00
2017-06-26T14:21:04.507Z,2.00
2017-06-26T14:23:32.775Z,1.93
2017-06-26T14:26:00.303Z,1.93
2017-06-26T14:28:27.810Z,2.10
2017-06-26T14:30:55.342Z,2.60
2017-06-26T14:33:22.895Z,1.73
2017-06-26T14:35:50.405Z,2.30
2017-06-26T14:38:17.931Z,2.10
2017-06-26T14:40:45.446Z,2.10
2017-06-26T14:43:12.971Z,1.80
2017-06-26T14:45:40.474Z,1.80
2017-06-26T14:48:08.003Z,2.00
2017-06-26T14:50:35.510Z,1.80
2017-06-26T14:53:03.024Z,1.63
2017-06-26T14:55:30.547Z,1.43
2017-06-26T14:57:58.819Z,1.80
2017-06-26T15:00:27.106Z,2.20
2017-06-26T15:02:54.615Z,1.83
2017-06-26T15:05:22.150Z,1.80
2017-06-26T15:07:49.667Z,2.07
2017-06-26T15:10:17.181Z,1.70
2017-06-26T15:12:44.711Z,1.70
2017-06-26T15:15:12.222Z,1.87
2017-06-26T15:17:39.750Z,1.93
2017-06-26T15:20:07.259Z,2.13
2017-06-26T15:22:34.807Z,2.27
2017-06-26T15:25:02.328Z,2.33
2017-06-26T15:27:29.835Z,2.17
2017-06-26T15:29:58.128Z,2.30
2017-06-26T15:32:25.636Z,2.10
2017-06-26T15:34:53.159Z,2.20
2017-06-26T15:37:20.673Z,2.20
2017-06-26T15:39:48.208Z,2.33
2017-06-26T15:42:15.716Z,2.13
2017-06-26T15:44:43.991Z,2.30
2017-06-26T15:47:12.294Z,1.90
2017-06-26T15:49:40.365Z,2.10
2017-06-26T15:52:07.891Z,2.47
2017-06-26T15:54:36.159Z,2.43
2017-06-26T15:57:03.695Z,2.50
2017-06-26T15:59:31.203Z,2.10
2017-06-26T16:01:58.711Z,2.50
2017-06-26T16:04:26.240Z,2.10
2017-06-26T16:06:53.752Z,2.60
2017-06-26T16:09:21.285Z,2.43
2017-06-26T16:11:48.796Z,2.40
2017-06-26T16:14:16.339Z,2.13
2017-06-26T16:16:43.856Z,2.37
2017-06-26T16:19:11.372Z,2.77
2017-06-26T16:21:38.895Z,2.70
2017-06-26T16:24:06.404Z,2.40
2017-06-26T16:26:33.931Z,2.60
2017-06-26T16:29:02.206Z,2.60
2017-06-26T16:31:29.737Z,2.30
2017-06-26T16:33:57.242Z,2.33
2017-06-26T16:36:24.755Z,2.57
2017-06-26T16:38:52.275Z,2.33
2017-06-26T16:41:19.779Z,2.37
2017-06-26T16:43:47.294Z,2.40
2017-06-26T16:46:14.797Z,2.20
2017-06-26T16:48:42.327Z,2.60
2017-06-26T16:51:09.835Z,2.40
2017-06-26T16:53:37.347Z,2.63
2017-06-26T16:56:04.868Z,2.50
2017-06-26T16:58:32.378Z,3.30
2017-06-26T17:00:59.896Z,2.90
2017-06-26T17:03:27.398Z,3.00
2017-06-26T17:05:54.931Z,2.60
2017-06-26T17:08:22.439Z,2.50
2017-06-26T17:10:49.952Z,2.70
2017-06-26T17:13:17.470Z,3.10
2017-06-26T17:15:44.977Z,3.00
2017-06-26T17:18:12.500Z,2.80
2017-06-26T17:20:40.007Z,2.57
2017-06-26T17:23:07.531Z,2.60
2017-06-26T17:25:35.049Z,2.67
2017-06-26T17:28:03.327Z,3.00
2017-06-26T17:30:30.852Z,2.83
2017-06-26T17:32:58.371Z,3.10
2017-06-26T17:35:25.897Z,2.87
2017-06-26T17:37:54.986Z,3.00
2017-06-26T17:40:22.511Z,3.47
2017-06-26T17:42:50.023Z,3.23
2017-06-26T17:45:17.528Z,2.90
2017-06-26T17:47:45.051Z,2.73
2017-06-26T17:50:12.560Z,3.10
2017-06-26T17:52:40.087Z,3.50
2017-06-26T17:55:07.592Z,2.87
2017-06-26T17:57:35.887Z,3.13
2017-06-26T18:00:03.395Z,2.70
2017-06-26T18:02:30.903Z,3.60
2017-06-26T18:04:58.421Z,3.20
2017-06-26T18:07:25.927Z,3.67
2017-06-26T18:09:53.446Z,3.27
2017-06-26T18:12:20.942Z,3.87
2017-06-26T18:14:48.467Z,3.00
2017-06-26T18:17:15.976Z,3.23
2017-06-26T18:19:43.474Z,3.43
2017-06-26T18:22:10.987Z,3.13
2017-06-26T18:24:38.487Z,3.07
2017-06-26T18:27:06.003Z,2.90
2017-06-26T18:29:33.507Z,2.30
2017-06-26T18:32:01.046Z,2.47
2017-06-26T18:34:28.553Z,2.90
2017-06-26T18:36:56.059Z,2.87
2017-06-26T18:39:23.583Z,2.50
2017-06-26T18:41:51.087Z,2.90
2017-06-26T18:44:18.608Z,3.07
2017-06-26T18:46:46.111Z,2.77
2017-06-26T18:49:13.640Z,3.03
2017-06-26T18:51:41.139Z,3.30
2017-06-26T18:54:08.643Z,3.10
2017-06-26T18:56:36.159Z,3.13
2017-06-26T18:59:03.662Z,2.90
2017-06-26T19:01:31.183Z,3.17
2017-06-26T19:03:59.455Z,2.80
2017-06-26T19:06:27.749Z,2.77
2017-06-26T19:08:55.260Z,2.50
2017-06-26T19:11:22.772Z,3.00
2017-06-26T19:13:50.307Z,2.77
2017-06-26T19:16:17.803Z,2.80
2017-06-26T19:18:45.318Z,2.50
2017-06-26T19:21:12.822Z,3.20
2017-06-26T19:23:40.346Z,3.50
2017-06-26T19:26:08.615Z,2.83
2017-06-26T19:28:36.879Z,2.80
2017-06-26T19:33:38.342Z,4.07
2017-06-26T19:36:05.867Z,4.87
2017-06-26T19:38:33.375Z,5.87
2017-06-26T19:41:01.679Z,5.50
2017-06-26T19:43:29.179Z,5.10
2017-06-26T19:45:56.678Z,4.20
2017-06-26T19:48:24.962Z,4.00
2017-06-26T19:50:53.227Z,4.30
2017-06-26T19:53:21.511Z,4.40
2017-06-26T19:55:49.783Z,3.40
2017-06-26T19:58:18.066Z,3.70
2017-06-26T20:00:46.332Z,4.10
2017-06-26T20:03:13.834Z,3.27
2017-06-26T20:05:41.346Z,3.13
2017-06-26T20:08:09.606Z,2.73
2017-06-26T20:10:37.119Z,3.73
2017-06-26T20:13:04.621Z,3.60
2017-06-26T20:15:32.142Z,3.00
2017-06-26T20:17:59.643Z,4.83
2017-06-26T20:20:27.139Z,3.57
2017-06-26T20:22:54.655Z,3.60
2017-06-26T20:25:22.155Z,3.40
2017-06-26T20:27:49.674Z,3.43
2017-06-26T20:30:17.175Z,3.07
2017-06-26T20:32:44.690Z,3.33
2017-06-26T20:35:12.186Z,4.07
2017-06-26T20:37:39.690Z,3.80
2017-06-26T20:40:07.208Z,3.20
2017-06-26T20:42:34.711Z,3.00
2017-06-26T20:45:02.231Z,3.47
2017-06-26T20:47:29.730Z,3.10
2017-06-26T20:49:57.256Z,3.53
2017-06-26T20:52:24.762Z,3.40
2017-06-26T20:54:52.267Z,3.97
2017-06-26T20:57:19.786Z,3.83
2017-06-26T20:59:48.047Z,3.10
2017-06-26T21:02:15.566Z,3.80
2017-06-26T21:04:43.072Z,3.40
2017-06-26T21:07:11.380Z,3.70
2017-06-26T21:09:38.919Z,3.77
2017-06-26T21:12:07.190Z,3.40
2017-06-26T21:14:35.474Z,3.70
2017-06-26T21:17:03.826Z,3.60
2017-06-26T21:19:31.351Z,3.80
2017-06-26T21:21:58.855Z,3.20
2017-06-26T21:24:26.383Z,3.40
2017-06-26T21:26:53.887Z,3.33
2017-06-26T21:29:22.151Z,3.10
2017-06-26T21:31:49.672Z,3.43
2017-06-26T21:34:17.174Z,3.23
2017-06-26T21:36:45.578Z,2.80
2017-06-26T21:39:13.123Z,3.63
2017-06-26T21:41:40.651Z,3.10
2017-06-26T21:44:08.151Z,3.10
2017-06-26T21:46:35.655Z,2.87
2017-06-26T21:49:03.167Z,3.20
2017-06-26T21:51:30.671Z,3.37
2017-06-26T21:53:58.183Z,3.43
2017-06-26T21:56:25.687Z,3.03
2017-06-26T21:58:53.211Z,3.27
2017-06-26T22:01:20.718Z,3.00
2017-06-26T22:03:48.220Z,2.70
2017-06-26T22:06:15.738Z,3.00
2017-06-26T22:08:43.239Z,2.90
2017-06-26T22:11:10.750Z,3.50
2017-06-26T22:13:38.257Z,3.37
2017-06-26T22:16:05.779Z,3.00
2017-06-26T22:18:34.047Z,3.30
2017-06-26T22:21:01.550Z,3.77
2017-06-26T22:23:29.064Z,3.27
2017-06-26T22:25:56.575Z,3.47
2017-06-26T22:28:24.087Z,3.30
2017-06-26T22:30:52.355Z,3.80
2017-06-26T22:33:19.896Z,4.13
2017-06-26T22:35:47.395Z,3.80
2017-06-26T22:38:14.890Z,4.20
2017-06-26T22:40:42.411Z,3.33
2017-06-26T22:43:09.915Z,3.57
2017-06-26T22:45:37.434Z,4.07
2017-06-26T22:48:04.935Z,3.50
2017-06-26T22:50:32.463Z,4.50
2017-06-26T22:52:59.975Z,3.90
2017-06-26T22:55:27.475Z,4.00
2017-06-26T22:57:54.992Z,3.40
2017-06-26T23:00:22.503Z,3.70
2017-06-26T23:02:50.032Z,3.27
2017-06-26T23:05:17.540Z,3.13
2017-06-26T23:07:45.066Z,3.40
2017-06-26T23:10:12.576Z,3.13
2017-06-26T23:12:40.079Z,2.80
2017-06-26T23:15:07.591Z,3.30
2017-06-26T23:17:35.099Z,3.73
2017-06-26T23:20:02.626Z,3.30
2017-06-26T23:22:30.132Z,3.20
2017-06-26T23:24:57.659Z,3.13
2017-06-26T23:27:25.163Z,3.20
2017-06-26T23:29:52.659Z,2.87
2017-06-26T23:32:20.178Z,4.20
2017-06-26T23:34:47.684Z,3.90
2017-06-26T23:37:15.203Z,3.20
2017-06-26T23:39:42.707Z,3.20
2017-06-26T23:42:10.231Z,3.40
2017-06-26T23:44:37.737Z,3.20
2017-06-26T23:47:05.243Z,2.83
2017-06-26T23:49:32.767Z,2.53
2017-06-26T23:52:00.267Z,3.20
2017-06-26T23:54:27.783Z,2.70
2017-06-26T23:56:55.278Z,2.57
2017-06-26T23:59:22.803Z,3.60
